Time;durP1;ratioP1;P1;durP2;ratioP2;P2;SDS_P1;SDS_P2;PMS_P1;PMS_P2;Temp;Humidity;BMP_temperature;BMP_pressure;BME280_temperature;BME280_humidity;BME280_pressure;Samples;Min_cycle;Max_cycle;Signal;HPM_P1;HPM_P2
2023/06/27 00:00:20;;;;;;;8.15;3.42;;;13.60;99.90;;;;;;7374505;19;20022;-65
2023/06/27 00:02:47;;;;;;;11.88;4.22;;;13.60;99.90;;;;;;7377302;19;20082;-66
2023/06/27 00:05:14;;;;;;;7.65;3.92;;;13.50;99.90;;;;;;7371761;19;20371;-63
2023/06/27 00:07:42;;;;;;;8.77;3.90;;;13.50;99.90;;;;;;7375867;19;20033;-65
2023/06/27 00:10:11;;;;;;;9.18;4.50;;;13.50;99.90;;;;;;7368456;19;20239;-65
2023/06/27 00:12:37;;;;;;;8.93;4.50;;;13.50;99.90;;;;;;7367634;19;20090;-63
2023/06/27 00:15:05;;;;;;;9.35;4.13;;;13.40;99.90;;;;;;7371092;19;20029;-62
2023/06/27 00:17:37;;;;;;;7.25;4.47;;;13.40;99.90;;;;;;7374489;19;20440;-65
2023/06/27 00:20:05;;;;;;;7.38;4.15;;;13.40;99.90;;;;;;7371780;19;20022;-65
2023/06/27 00:22:31;;;;;;;13.85;5.68;;;13.30;99.90;;;;;;7370401;19;20026;-64
2023/06/27 00:24:57;;;;;;;7.78;4.22;;;13.30;99.90;;;;;;7362458;19;20291;-65
2023/06/27 00:27:23;;;;;;;8.38;4.55;;;13.30;99.90;;;;;;7371741;19;20030;-66
2023/06/27 00:29:49;;;;;;;7.90;4.57;;;13.30;99.90;;;;;;7370031;19;20014;-66
2023/06/27 00:32:16;;;;;;;10.43;4.53;;;13.20;99.90;;;;;;7377585;19;20631;-65
2023/06/27 00:34:42;;;;;;;8.95;4.60;;;13.20;99.90;;;;;;7378162;19;20020;-66
2023/06/27 00:37:08;;;;;;;7.97;5.00;;;13.20;99.90;;;;;;7375634;19;21063;-65
2023/06/27 00:39:37;;;;;;;5.57;4.28;;;13.20;99.90;;;;;;7373679;19;20093;-65
2023/06/27 00:42:03;;;;;;;8.80;4.88;;;13.20;99.90;;;;;;7375161;19;20019;-65
2023/06/27 00:44:30;;;;;;;7.18;4.25;;;13.20;99.90;;;;;;7379950;19;20450;-66
2023/06/27 00:46:56;;;;;;;6.65;5.00;;;13.20;99.90;;;;;;7378777;19;20436;-65
2023/06/27 00:49:23;;;;;;;8.25;4.75;;;13.10;99.90;;;;;;7379668;19;20026;-65
2023/06/27 00:51:53;;;;;;;8.50;5.22;;;13.10;99.90;;;;;;7378683;19;20015;-64
2023/06/27 00:54:20;;;;;;;9.45;5.28;;;13.10;99.90;;;;;;7376772;19;20408;-64
2023/06/27 00:56:53;;;;;;;9.80;5.82;;;13.10;99.90;;;;;;7378587;19;20354;-64
2023/06/27 00:59:19;;;;;;;11.05;5.00;;;13.00;99.90;;;;;;7378755;19;20496;-66
2023/06/27 01:01:45;;;;;;;9.50;5.07;;;13.00;99.90;;;;;;7380135;19;20560;-65
2023/06/27 01:04:13;;;;;;;8.23;4.90;;;13.00;99.90;;;;;;7380183;19;20161;-64
2023/06/27 01:06:54;;;;;;;6.25;4.75;;;13.00;99.90;;;;;;7380073;19;20022;-64
2023/06/27 01:09:50;;;;;;;13.80;6.18;;;12.90;99.90;;;;;;7377931;19;20117;-64
2023/06/27 01:12:20;;;;;;;9.90;5.43;;;12.90;99.90;;;;;;7378117;19;20081;-65
2023/06/27 01:14:47;;;;;;;9.43;5.00;;;12.90;99.90;;;;;;7375376;19;20584;-64
2023/06/27 01:17:16;;;;;;;9.13;5.10;;;12.80;99.90;;;;;;7375221;19;20359;-64
2023/06/27 01:19:45;;;;;;;10.95;4.78;;;12.80;99.90;;;;;;7376695;19;20444;-64
2023/06/27 01:22:21;;;;;;;8.80;5.25;;;12.80;99.90;;;;;;7378114;19;20075;-65
2023/06/27 01:24:51;;;;;;;9.10;4.85;;;12.70;99.90;;;;;;7372822;19;20019;-65
2023/06/27 01:27:17;;;;;;;8.60;5.20;;;12.80;99.90;;;;;;7374392;19;20022;-64
2023/06/27 01:29:43;;;;;;;8.43;5.45;;;12.70;99.90;;;;;;7376203;19;20389;-64
2023/06/27 01:32:33;;;;;;;6.60;4.50;;;12.70;99.90;;;;;;7374037;19;20018;-64
2023/06/27 01:35:18;;;;;;;6.25;4.75;;;12.70;99.90;;;;;;7377450;19;20022;-64
2023/06/27 01:37:54;;;;;;;8.93;4.95;;;12.70;99.90;;;;;;7374692;19;20438;-63
2023/06/27 01:40:23;;;;;;;8.32;4.65;;;12.70;99.90;;;;;;7377952;19;20020;-63
2023/06/27 01:42:57;;;;;;;9.65;5.10;;;12.70;99.90;;;;;;7372110;19;20022;-63
2023/06/27 01:45:28;;;;;;;9.30;5.00;;;12.60;99.90;;;;;;7378023;19;20102;-62
2023/06/27 01:47:55;;;;;;;7.47;5.50;;;12.60;99.90;;;;;;7373240;19;20018;-62
2023/06/27 01:50:21;;;;;;;7.60;4.78;;;12.50;99.90;;;;;;7374628;19;20018;-63
2023/06/27 01:52:48;;;;;;;8.85;4.90;;;12.50;99.90;;;;;;7374711;19;20467;-63
2023/06/27 01:55:15;;;;;;;8.25;5.38;;;12.50;99.90;;;;;;7373820;19;20712;-63
2023/06/27 01:57:41;;;;;;;7.53;4.85;;;12.50;99.90;;;;;;7372701;19;20095;-63
2023/06/27 02:00:10;;;;;;;8.73;6.07;;;12.50;99.90;;;;;;7370316;19;20023;-63
2023/06/27 02:02:43;;;;;;;8.43;5.28;;;12.50;99.90;;;;;;7368754;19;20395;-62
2023/06/27 02:05:10;;;;;;;8.57;4.82;;;12.50;99.90;;;;;;7371716;19;20103;-63
2023/06/27 02:07:37;;;;;;;10.32;5.07;;;12.40;99.90;;;;;;7371140;19;20507;-62
2023/06/27 02:10:03;;;;;;;8.30;5.10;;;12.50;99.90;;;;;;7369704;19;20019;-62
2023/06/27 02:12:30;;;;;;;10.32;5.28;;;12.50;99.90;;;;;;7371696;19;20022;-62
2023/06/27 02:14:57;;;;;;;7.95;5.32;;;12.40;99.90;;;;;;7371522;19;20110;-63
2023/06/27 02:17:24;;;;;;;8.68;4.95;;;12.40;99.90;;;;;;7372859;19;20015;-65
2023/06/27 02:19:50;;;;;;;8.48;5.47;;;12.40;99.90;;;;;;7370326;19;20018;-63
2023/06/27 02:22:17;;;;;;;6.43;4.85;;;12.40;99.90;;;;;;7372180;19;20046;-63
2023/06/27 02:24:43;;;;;;;10.23;5.90;;;12.40;99.90;;;;;;7368813;19;20019;-62
2023/06/27 02:27:09;;;;;;;11.48;5.70;;;12.40;99.90;;;;;;7372939;19;20482;-64
2023/06/27 02:29:38;;;;;;;11.02;6.00;;;12.40;99.90;;;;;;7369878;19;20110;-63
2023/06/27 02:32:04;;;;;;;9.63;5.80;;;12.30;99.90;;;;;;7371672;19;20015;-63
2023/06/27 02:34:31;;;;;;;10.60;6.55;;;12.30;99.90;;;;;;7372099;19;20093;-64
2023/06/27 02:36:57;;;;;;;11.52;6.45;;;12.30;99.90;;;;;;7372704;19;20037;-63
2023/06/27 02:39:25;;;;;;;11.18;6.70;;;12.20;99.90;;;;;;7372112;19;20033;-63
2023/06/27 02:41:51;;;;;;;9.85;6.28;;;12.20;99.90;;;;;;7371086;19;20683;-64
2023/06/27 02:44:17;;;;;;;9.63;6.63;;;12.10;99.90;;;;;;7373366;19;20025;-64
2023/06/27 02:46:44;;;;;;;9.13;6.57;;;12.10;99.90;;;;;;7371352;19;20015;-63
2023/06/27 02:49:10;;;;;;;10.05;7.30;;;12.10;99.90;;;;;;7371205;19;20453;-62
2023/06/27 02:51:38;;;;;;;10.57;6.57;;;12.10;99.90;;;;;;7368541;19;20472;-65
2023/06/27 02:54:04;;;;;;;10.73;6.32;;;12.10;99.90;;;;;;7369288;19;20045;-65
2023/06/27 02:56:30;;;;;;;10.65;6.55;;;12.10;99.90;;;;;;7373082;19;20067;-65
2023/06/27 02:58:56;;;;;;;7.50;6.30;;;12.10;99.90;;;;;;7370587;19;20036;-65
2023/06/27 03:01:23;;;;;;;10.43;6.68;;;12.10;99.90;;;;;;7369879;19;20030;-65
2023/06/27 03:03:49;;;;;;;11.35;7.07;;;12.10;99.90;;;;;;7372039;19;20018;-65
2023/06/27 03:06:19;;;;;;;9.13;6.63;;;12.10;99.90;;;;;;7370035;19;20038;-65
2023/06/27 03:08:47;;;;;;;10.57;6.90;;;12.10;99.90;;;;;;7370903;19;20015;-65
2023/06/27 03:11:13;;;;;;;8.45;6.68;;;12.10;99.90;;;;;;7370100;19;20343;-65
2023/06/27 03:13:40;;;;;;;13.43;7.45;;;12.10;99.90;;;;;;7370643;19;20022;-66
2023/06/27 03:16:07;;;;;;;9.45;6.70;;;12.10;99.90;;;;;;7368889;19;20023;-65
2023/06/27 03:18:34;;;;;;;10.38;6.85;;;12.10;99.90;;;;;;7368710;19;20625;-65
2023/06/27 03:21:00;;;;;;;13.02;7.18;;;12.20;99.90;;;;;;7367286;19;20037;-65
2023/06/27 03:23:27;;;;;;;14.38;7.60;;;12.20;99.90;;;;;;7366284;19;20025;-65
2023/06/27 03:25:57;;;;;;;10.80;7.63;;;12.20;99.90;;;;;;7369271;19;20362;-66
2023/06/27 03:28:23;;;;;;;11.50;8.20;;;12.20;99.90;;;;;;7368489;19;20018;-65
2023/06/27 03:30:54;;;;;;;11.18;7.28;;;12.30;99.90;;;;;;7369221;19;20015;-66
2023/06/27 03:33:20;;;;;;;11.40;7.97;;;12.30;99.90;;;;;;7366060;19;20039;-66
2023/06/27 03:35:49;;;;;;;9.85;7.82;;;12.20;99.90;;;;;;7367382;19;20021;-66
2023/06/27 03:38:16;;;;;;;10.90;7.93;;;12.30;99.90;;;;;;7368847;19;20683;-65
2023/06/27 03:40:46;;;;;;;9.75;7.05;;;12.30;99.90;;;;;;7367352;19;20608;-65
2023/06/27 03:43:13;;;;;;;13.05;8.43;;;12.40;99.90;;;;;;7365425;19;20048;-65
2023/06/27 03:45:40;;;;;;;10.85;7.30;;;12.30;99.90;;;;;;7361441;19;20022;-66
2023/06/27 03:48:08;;;;;;;10.32;7.63;;;12.40;99.90;;;;;;7367908;19;20041;-65
2023/06/27 03:50:36;;;;;;;10.15;8.30;;;12.40;99.90;;;;;;7366741;19;20025;-66
2023/06/27 03:53:03;;;;;;;12.68;8.48;;;12.40;99.90;;;;;;7365313;19;20022;-65
2023/06/27 03:55:29;;;;;;;13.05;8.13;;;12.50;99.90;;;;;;7366723;19;20025;-66
2023/06/27 03:57:56;;;;;;;11.18;7.05;;;12.50;99.90;;;;;;7366737;19;20018;-65
2023/06/27 04:00:22;;;;;;;18.58;8.95;;;12.60;99.90;;;;;;7366727;19;20526;-65
2023/06/27 04:02:51;;;;;;;14.38;9.25;;;12.60;99.90;;;;;;7363537;19;20118;-66
2023/06/27 04:05:17;;;;;;;12.02;8.25;;;12.60;99.90;;;;;;7367263;19;20652;-66
2023/06/27 04:07:47;;;;;;;13.52;9.30;;;12.70;99.90;;;;;;7378779;19;20011;-64
2023/06/27 04:10:14;;;;;;;9.77;8.30;;;12.80;99.90;;;;;;7378354;19;20023;-66
2023/06/27 04:12:41;;;;;;;14.80;9.05;;;12.80;99.90;;;;;;7374639;19;20584;-64
2023/06/27 04:15:09;;;;;;;14.88;10.13;;;12.90;99.90;;;;;;7375178;19;20018;-65
2023/06/27 04:17:35;;;;;;;12.82;9.05;;;12.90;99.90;;;;;;7377652;19;20432;-64
2023/06/27 04:20:02;;;;;;;14.60;9.68;;;13.00;99.90;;;;;;7378153;19;20478;-65
2023/06/27 04:22:28;;;;;;;11.15;8.95;;;13.00;99.90;;;;;;7378498;19;20018;-66
2023/06/27 04:24:55;;;;;;;14.75;9.23;;;13.10;99.90;;;;;;7373785;19;20402;-65
2023/06/27 04:27:22;;;;;;;13.65;9.48;;;13.10;99.90;;;;;;7377266;19;20069;-64
2023/06/27 04:29:49;;;;;;;11.88;9.65;;;13.20;99.90;;;;;;7374955;19;20624;-61
2023/06/27 04:32:15;;;;;;;14.07;9.90;;;13.20;99.90;;;;;;7375648;19;20018;-62
2023/06/27 04:34:41;;;;;;;14.40;10.23;;;13.50;99.90;;;;;;7372910;19;20023;-63
2023/06/27 04:37:08;;;;;;;15.55;9.45;;;13.80;99.90;;;;;;7377081;19;20411;-63
2023/06/27 04:39:34;;;;;;;14.35;9.13;;;13.90;99.90;;;;;;7378215;19;20489;-69
2023/06/27 04:42:01;;;;;;;17.48;8.43;;;14.00;99.90;;;;;;7370320;19;20445;-63
2023/06/27 04:44:27;;;;;;;10.15;7.10;;;14.20;99.90;;;;;;7373412;19;20366;-65
2023/06/27 04:46:54;;;;;;;10.57;9.02;;;14.30;99.90;;;;;;7376127;19;20026;-65
2023/06/27 04:49:20;;;;;;;12.68;8.18;;;14.40;99.90;;;;;;7374174;19;20018;-65
2023/06/27 04:51:46;;;;;;;12.60;8.68;;;14.60;99.90;;;;;;7378020;19;20029;-64
2023/06/27 04:54:12;;;;;;;12.88;9.18;;;14.80;99.90;;;;;;7371280;19;20061;-65
2023/06/27 04:56:39;;;;;;;14.52;9.45;;;14.80;99.90;;;;;;7373108;19;20531;-65
2023/06/27 04:59:05;;;;;;;18.17;9.52;;;14.90;99.90;;;;;;7375607;19;20758;-64
2023/06/27 05:01:31;;;;;;;12.35;9.68;;;15.00;99.90;;;;;;7373948;19;20122;-62
2023/06/27 05:04:04;;;;;;;12.73;8.93;;;15.00;99.90;;;;;;7377028;19;20021;-62
2023/06/27 05:06:33;;;;;;;13.40;8.93;;;15.20;99.90;;;;;;7373561;19;20540;-61
2023/06/27 05:09:01;;;;;;;12.35;8.60;;;15.30;99.90;;;;;;7375751;19;20597;-63
2023/06/27 05:11:28;;;;;;;13.57;9.10;;;15.50;99.90;;;;;;7377101;19;20028;-62
2023/06/27 05:13:54;;;;;;;11.20;8.40;;;15.80;99.90;;;;;;7377574;19;20018;-63
2023/06/27 05:16:21;;;;;;;14.45;8.32;;;16.30;99.90;;;;;;7374133;19;20437;-63
2023/06/27 05:18:47;;;;;;;11.27;8.27;;;16.70;99.90;;;;;;7376563;19;20035;-63
2023/06/27 05:21:14;;;;;;;13.73;7.50;;;17.00;99.90;;;;;;7374633;19;20022;-63
2023/06/27 05:23:43;;;;;;;8.57;6.35;;;17.40;99.90;;;;;;7377138;19;20046;-63
2023/06/27 05:26:09;;;;;;;13.30;6.80;;;17.60;99.90;;;;;;7374763;19;20027;-63
2023/06/27 05:28:35;;;;;;;9.43;6.88;;;17.90;99.90;;;;;;7377270;19;20041;-64
2023/06/27 05:31:02;;;;;;;9.27;5.50;;;18.10;99.90;;;;;;7374362;19;20022;-64
2023/06/27 05:33:28;;;;;;;12.82;6.85;;;18.30;99.90;;;;;;7374452;19;20018;-64
2023/06/27 05:35:54;;;;;;;9.20;5.80;;;18.50;99.90;;;;;;7372733;19;20045;-64
2023/06/27 05:38:20;;;;;;;7.70;5.50;;;18.70;99.90;;;;;;7371573;19;20018;-61
2023/06/27 05:40:47;;;;;;;56.85;50.83;;;18.80;99.90;;;;;;7370413;19;20014;-64
2023/06/27 05:43:13;;;;;;;10.93;7.28;;;18.90;99.90;;;;;;7371941;19;20600;-63
2023/06/27 05:45:39;;;;;;;14.45;8.35;;;19.20;99.90;;;;;;7372032;19;20493;-63
2023/06/27 05:48:06;;;;;;;10.40;5.20;;;19.30;99.90;;;;;;7374991;19;20630;-64
2023/06/27 05:50:32;;;;;;;10.95;5.57;;;19.50;99.90;;;;;;7372558;19;20374;-63
2023/06/27 05:52:58;;;;;;;8.50;4.45;;;19.70;99.90;;;;;;7376122;19;20078;-64
2023/06/27 05:55:25;;;;;;;7.82;4.75;;;19.90;99.90;;;;;;7376256;19;20018;-64
2023/06/27 05:57:51;;;;;;;11.88;8.30;;;19.90;99.90;;;;;;7373989;19;20023;-64
2023/06/27 06:00:18;;;;;;;10.45;7.35;;;20.10;99.90;;;;;;7375852;19;20026;-63
2023/06/27 06:02:47;;;;;;;8.20;3.15;;;20.30;99.90;;;;;;7371924;19;20018;-62
2023/06/27 06:05:14;;;;;;;7.47;3.38;;;20.50;99.90;;;;;;7375186;19;20018;-64
2023/06/27 06:07:43;;;;;;;7.25;2.42;;;20.60;99.90;;;;;;7376294;19;20014;-63
2023/06/27 06:10:11;;;;;;;10.50;5.32;;;20.50;99.90;;;;;;7375609;19;20021;-62
2023/06/27 06:12:38;;;;;;;11.07;4.78;;;20.70;99.90;;;;;;7373586;19;20027;-64
2023/06/27 06:15:05;;;;;;;10.05;3.00;;;20.80;99.90;;;;;;7370899;19;20478;-64
2023/06/27 06:17:31;;;;;;;7.35;2.90;;;20.80;99.90;;;;;;7376202;19;20093;-61
2023/06/27 06:19:57;;;;;;;8.23;3.55;;;20.90;99.90;;;;;;7373697;19;20546;-62
2023/06/27 06:22:23;;;;;;;6.18;2.03;;;21.20;99.90;;;;;;7374219;19;20014;-60
2023/06/27 06:24:50;;;;;;;7.57;2.05;;;21.20;99.90;;;;;;7371569;19;20399;-61
2023/06/27 06:27:16;;;;;;;6.35;2.10;;;21.10;99.90;;;;;;7373203;19;20026;-61
2023/06/27 06:29:42;;;;;;;4.53;1.50;;;21.20;99.90;;;;;;7372684;19;20014;-60
2023/06/27 06:32:08;;;;;;;8.55;2.13;;;21.40;99.90;;;;;;7371550;19;20023;-60
2023/06/27 06:34:34;;;;;;;4.45;1.65;;;21.40;99.90;;;;;;7372338;19;20015;-60
2023/06/27 06:37:01;;;;;;;5.22;1.95;;;21.30;99.90;;;;;;7373330;19;20014;-61
2023/06/27 06:39:27;;;;;;;6.03;1.55;;;21.40;99.90;;;;;;7372273;19;20089;-61
2023/06/27 06:41:53;;;;;;;4.28;1.52;;;21.70;99.90;;;;;;7373280;19;20381;-61
2023/06/27 06:44:19;;;;;;;6.05;1.70;;;22.00;99.90;;;;;;7369185;19;20033;-60
2023/06/27 06:46:47;;;;;;;6.47;1.30;;;22.00;99.90;;;;;;7372963;19;20375;-63
2023/06/27 06:49:13;;;;;;;10.30;2.08;;;22.10;99.90;;;;;;7373832;19;20018;-63
2023/06/27 06:51:39;;;;;;;7.00;1.52;;;22.30;99.90;;;;;;7376160;19;20040;-62
2023/06/27 06:54:05;;;;;;;5.72;1.40;;;22.40;99.90;;;;;;7371070;19;20029;-63
2023/06/27 06:56:32;;;;;;;5.90;2.40;;;22.70;99.90;;;;;;7373100;19;20743;-64
2023/06/27 06:58:59;;;;;;;5.22;1.05;;;22.90;99.90;;;;;;7371608;19;20086;-64
2023/06/27 07:01:28;;;;;;;5.30;1.30;;;22.90;99.90;;;;;;7374801;19;20085;-64
2023/06/27 07:03:54;;;;;;;4.40;1.10;;;22.70;99.90;;;;;;7369934;19;20366;-64
2023/06/27 07:06:20;;;;;;;5.63;1.33;;;23.20;99.90;;;;;;7373515;19;20462;-64
2023/06/27 07:08:47;;;;;;;6.13;1.20;;;23.20;98.80;;;;;;7373341;19;20422;-64
2023/06/27 07:11:13;;;;;;;4.50;1.15;;;22.80;93.10;;;;;;7374574;19;20726;-64
2023/06/27 07:13:40;;;;;;;5.65;1.23;;;22.80;93.00;;;;;;7372901;19;20021;-64
2023/06/27 07:16:06;;;;;;;4.47;1.52;;;22.90;92.00;;;;;;7371600;19;20499;-64
2023/06/27 07:18:32;;;;;;;6.38;1.75;;;23.00;92.00;;;;;;7372183;19;20692;-64
2023/06/27 07:20:58;;;;;;;4.40;1.17;;;22.70;90.30;;;;;;7373381;19;20997;-64
2023/06/27 07:23:25;;;;;;;5.88;2.78;;;22.80;86.70;;;;;;7371365;19;20516;-64
2023/06/27 07:25:51;;;;;;;4.78;1.02;;;22.60;90.20;;;;;;7368456;19;20018;-64
2023/06/27 07:28:20;;;;;;;6.13;0.88;;;22.80;88.70;;;;;;7374516;19;20023;-62
2023/06/27 07:30:47;;;;;;;6.07;1.23;;;23.00;88.30;;;;;;7375022;19;20065;-64
2023/06/27 07:33:13;;;;;;;4.78;1.15;;;22.90;86.30;;;;;;7371043;19;20042;-64
2023/06/27 07:35:39;;;;;;;6.95;2.55;;;23.00;87.00;;;;;;7371777;19;20014;-65
2023/06/27 07:38:06;;;;;;;3.40;0.93;;;23.20;87.10;;;;;;7370790;19;20483;-65
2023/06/27 07:40:32;;;;;;;5.22;1.25;;;23.40;87.50;;;;;;7373036;19;20029;-60
2023/06/27 07:42:58;;;;;;;6.75;1.17;;;23.80;83.20;;;;;;7376773;19;20026;-61
2023/06/27 07:45:25;;;;;;;5.03;1.00;;;23.60;81.40;;;;;;7379659;19;20509;-64
2023/06/27 07:47:51;;;;;;;5.90;2.45;;;23.50;79.30;;;;;;7379591;19;20509;-60
2023/06/27 07:50:17;;;;;;;8.40;2.28;;;23.20;78.30;;;;;;7381921;19;20432;-61
2023/06/27 07:52:47;;;;;;;5.00;1.38;;;22.70;77.90;;;;;;7382667;19;20022;-63
2023/06/27 07:55:13;;;;;;;7.88;1.80;;;22.30;78.10;;;;;;7377728;19;20014;-61
2023/06/27 07:57:39;;;;;;;4.85;1.08;;;22.00;79.50;;;;;;7378092;19;20053;-62
2023/06/27 08:00:06;;;;;;;4.60;1.95;;;22.00;79.00;;;;;;7379736;19;20596;-64
2023/06/27 08:02:39;;;;;;;5.47;1.10;;;22.10;80.00;;;;;;7382040;19;20498;-65
2023/06/27 08:05:06;;;;;;;6.30;1.33;;;22.30;80.30;;;;;;7374310;19;20014;-62
2023/06/27 08:07:33;;;;;;;5.50;1.63;;;22.20;80.60;;;;;;7379040;19;20524;-64
2023/06/27 08:09:59;;;;;;;6.00;1.27;;;22.00;79.70;;;;;;7379253;19;20014;-64
2023/06/27 08:12:26;;;;;;;4.00;1.08;;;22.00;79.50;;;;;;7376111;19;20022;-63
2023/06/27 08:14:53;;;;;;;2.85;0.93;;;22.00;79.10;;;;;;7379001;19;20473;-63
2023/06/27 08:17:19;;;;;;;4.22;1.20;;;22.20;78.20;;;;;;7379396;19;20018;-63
2023/06/27 08:19:45;;;;;;;4.10;1.08;;;22.30;74.90;;;;;;7370024;19;20014;-64
2023/06/27 08:22:13;;;;;;;6.50;1.52;;;22.30;75.20;;;;;;7365935;19;20769;-64
2023/06/27 08:24:42;;;;;;;4.70;1.00;;;22.40;73.50;;;;;;7364492;19;20037;-63
2023/06/27 08:27:09;;;;;;;5.05;1.08;;;22.50;71.00;;;;;;7368982;19;20026;-63
2023/06/27 08:29:35;;;;;;;3.90;1.15;;;22.60;70.90;;;;;;7368582;19;20019;-64
2023/06/27 08:32:01;;;;;;;5.15;1.00;;;22.90;70.30;;;;;;7368013;19;20030;-63
2023/06/27 08:34:31;;;;;;;2.72;1.10;;;23.20;67.90;;;;;;7366932;19;20018;-63
2023/06/27 08:36:58;;;;;;;6.68;1.13;;;23.50;67.70;;;;;;7366937;19;20018;-63
2023/06/27 08:39:26;;;;;;;4.90;1.13;;;23.50;65.70;;;;;;7369459;19;20463;-63
2023/06/27 08:41:52;;;;;;;5.22;1.10;;;23.80;64.50;;;;;;7368608;19;20018;-60
2023/06/27 08:44:21;;;;;;;5.03;1.55;;;24.20;64.20;;;;;;7376500;19;20046;-63
2023/06/27 08:46:48;;;;;;;5.40;1.02;;;24.60;61.30;;;;;;7375487;19;20014;-62
2023/06/27 08:49:22;;;;;;;4.50;1.42;;;24.90;59.60;;;;;;7379099;19;20630;-61
2023/06/27 08:51:52;;;;;;;3.05;1.23;;;25.10;59.10;;;;;;7376385;19;20416;-62
2023/06/27 08:54:32;;;;;;;3.03;0.90;;;25.20;59.50;;;;;;7378497;19;21242;-62
2023/06/27 08:57:00;;;;;;;3.70;1.08;;;25.00;56.10;;;;;;7377137;19;20025;-60
2023/06/27 08:59:31;;;;;;;3.60;0.77;;;25.00;55.50;;;;;;7375990;19;20764;-63
2023/06/27 09:02:00;;;;;;;3.90;1.30;;;25.20;55.10;;;;;;7376444;19;20500;-63
2023/06/27 09:04:27;;;;;;;5.38;1.23;;;25.60;54.50;;;;;;7378569;19;20484;-61
2023/06/27 09:06:54;;;;;;;3.38;1.00;;;25.50;54.20;;;;;;7374778;19;20106;-62
2023/06/27 09:09:22;;;;;;;4.47;0.80;;;25.00;53.80;;;;;;7377946;19;20019;-63
2023/06/27 09:11:49;;;;;;;5.15;0.93;;;25.40;54.10;;;;;;7374411;19;20469;-60
2023/06/27 09:14:15;;;;;;;3.30;1.02;;;24.80;54.40;;;;;;7378697;19;20052;-62
2023/06/27 09:16:43;;;;;;;3.75;0.90;;;24.90;54.40;;;;;;7374317;19;20018;-63
2023/06/27 09:19:09;;;;;;;4.68;1.10;;;24.70;54.40;;;;;;7378335;19;20043;-62
2023/06/27 09:21:37;;;;;;;7.68;1.13;;;24.50;54.70;;;;;;7374971;19;20481;-63
2023/06/27 09:24:07;;;;;;;5.95;0.90;;;24.70;55.50;;;;;;7374422;19;20628;-63
2023/06/27 09:26:33;;;;;;;5.57;1.00;;;24.70;55.60;;;;;;7367452;19;21076;-63
2023/06/27 09:29:00;;;;;;;3.92;1.05;;;24.50;55.40;;;;;;7375328;19;20019;-61
2023/06/27 09:31:28;;;;;;;4.40;0.90;;;24.30;55.30;;;;;;7376430;19;20094;-60
2023/06/27 09:34:11;;;;;;;4.07;1.20;;;24.50;56.20;;;;;;7374812;19;20022;-63
2023/06/27 09:36:39;;;;;;;5.47;1.52;;;24.50;55.70;;;;;;7375770;19;20101;-60
2023/06/27 09:39:10;;;;;;;4.60;1.13;;;24.70;56.40;;;;;;7374307;19;20408;-60
2023/06/27 09:41:49;;;;;;;4.47;1.10;;;24.80;55.70;;;;;;7378401;19;20018;-59
2023/06/27 09:44:24;;;;;;;4.55;0.93;;;24.60;55.00;;;;;;7378366;19;20045;-59
2023/06/27 09:46:54;;;;;;;4.82;1.25;;;24.80;54.80;;;;;;7373207;19;20018;-60
2023/06/27 09:49:22;;;;;;;5.20;1.13;;;24.90;55.30;;;;;;7373953;19;20627;-61
2023/06/27 09:51:51;;;;;;;6.93;2.22;;;25.20;55.90;;;;;;7375852;19;20070;-61
2023/06/27 09:54:21;;;;;;;3.92;0.90;;;25.40;56.00;;;;;;7376004;19;20454;-60
2023/06/27 09:56:52;;;;;;;7.53;1.15;;;24.90;54.90;;;;;;7375890;19;20017;-60
2023/06/27 09:59:22;;;;;;;7.03;1.00;;;25.10;55.50;;;;;;7374370;19;20522;-61
2023/06/27 10:01:50;;;;;;;5.88;1.08;;;25.30;55.10;;;;;;7370465;19;20035;-61
2023/06/27 10:04:17;;;;;;;4.28;1.02;;;24.80;54.70;;;;;;7374320;19;20026;-60
2023/06/27 10:06:43;;;;;;;5.32;1.20;;;25.10;54.90;;;;;;7376354;19;20381;-65
2023/06/27 10:09:09;;;;;;;6.20;0.98;;;25.00;55.40;;;;;;7374096;19;20015;-64
2023/06/27 10:11:37;;;;;;;2.90;0.85;;;25.00;55.40;;;;;;7376492;19;20018;-62
2023/06/27 10:14:04;;;;;;;3.90;0.90;;;25.20;56.20;;;;;;7374546;19;20018;-59
2023/06/27 10:16:30;;;;;;;3.78;0.90;;;25.40;56.20;;;;;;7374926;19;20022;-62
2023/06/27 10:18:58;;;;;;;6.78;1.55;;;25.90;55.40;;;;;;7374778;19;20400;-60
2023/06/27 10:21:26;;;;;;;5.18;1.67;;;25.60;55.20;;;;;;7374636;19;20018;-62
2023/06/27 10:23:55;;;;;;;3.80;1.10;;;25.50;55.40;;;;;;7374089;19;20697;-63
2023/06/27 10:26:25;;;;;;;6.03;1.08;;;25.60;55.30;;;;;;7373887;19;20025;-60
2023/06/27 10:28:51;;;;;;;6.05;1.23;;;25.70;55.60;;;;;;7375554;19;20018;-59
2023/06/27 10:31:56;;;;;;;4.35;1.10;;;25.90;55.80;;;;;;7375906;19;20488;-60
2023/06/27 10:34:28;;;;;;;5.13;1.10;;;26.00;52.90;;;;;;7372694;19;20022;-60
2023/06/27 10:36:54;;;;;;;4.97;1.35;;;25.90;53.50;;;;;;7369864;19;20135;-60
2023/06/27 10:39:29;;;;;;;6.65;1.13;;;26.20;53.90;;;;;;7373685;19;20525;-60
2023/06/27 10:42:18;;;;;;;4.88;0.95;;;26.40;53.80;;;;;;7374373;19;20018;-60
2023/06/27 10:44:59;;;;;;;4.40;0.90;;;26.00;53.50;;;;;;7375835;19;20020;-60
2023/06/27 10:47:29;;;;;;;9.35;3.35;;;25.70;53.40;;;;;;7372944;19;20082;-60
2023/06/27 10:50:04;;;;;;;5.28;1.42;;;25.50;54.40;;;;;;7371616;19;20525;-60
2023/06/27 10:52:30;;;;;;;4.22;1.00;;;26.30;54.00;;;;;;7372705;19;20373;-60
2023/06/27 10:55:18;;;;;;;2.47;0.95;;;26.30;53.50;;;;;;7371980;19;20045;-59
2023/06/27 10:57:47;;;;;;;7.85;1.10;;;26.20;52.50;;;;;;7371501;19;20047;-60
2023/06/27 11:00:32;;;;;;;7.28;1.60;;;26.20;53.30;;;;;;7376226;19;20019;-59
2023/06/27 11:03:01;;;;;;;4.95;1.30;;;25.70;53.30;;;;;;7376723;19;20390;-59
2023/06/27 11:05:44;;;;;;;6.70;1.15;;;26.20;53.50;;;;;;7370372;19;20025;-60
2023/06/27 11:08:26;;;;;;;7.28;1.23;;;27.00;53.90;;;;;;7371218;19;20055;-62
2023/06/27 11:11:03;;;;;;;7.45;1.13;;;26.50;52.70;;;;;;7369615;19;20500;-61
2023/06/27 11:13:34;;;;;;;3.08;0.70;;;26.10;52.50;;;;;;7372784;19;20621;-61
2023/06/27 11:16:02;;;;;;;4.05;1.00;;;26.40;52.60;;;;;;7373093;19;20026;-60
2023/06/27 11:18:28;;;;;;;5.10;1.15;;;26.30;52.50;;;;;;7372033;19;20022;-60
2023/06/27 11:20:57;;;;;;;4.53;0.98;;;26.70;52.90;;;;;;7369169;19;20725;-61
2023/06/27 11:23:25;;;;;;;8.63;6.40;;;26.40;50.70;;;;;;7372161;19;20024;-62
2023/06/27 11:25:51;;;;;;;3.67;1.05;;;26.30;50.70;;;;;;7370885;19;20044;-62
2023/06/27 11:28:19;;;;;;;3.67;1.83;;;25.90;50.30;;;;;;7369206;19;20787;-62
2023/06/27 11:30:46;;;;;;;6.20;2.00;;;26.30;50.40;;;;;;7373219;19;20019;-63
2023/06/27 11:33:16;;;;;;;4.50;1.15;;;26.00;50.60;;;;;;7369222;19;20022;-62
2023/06/27 11:35:43;;;;;;;3.95;1.50;;;25.90;50.90;;;;;;7369585;19;20502;-62
2023/06/27 11:38:10;;;;;;;6.95;1.00;;;25.50;51.90;;;;;;7371606;19;20022;-61
2023/06/27 11:40:37;;;;;;;8.30;1.60;;;25.20;52.90;;;;;;7370204;19;21381;-61
2023/06/27 11:43:06;;;;;;;6.60;1.17;;;24.60;54.00;;;;;;7370779;19;20025;-63
2023/06/27 11:45:33;;;;;;;5.75;1.00;;;24.50;54.80;;;;;;7369004;19;20051;-62
2023/06/27 11:48:00;;;;;;;3.35;0.95;;;24.00;55.40;;;;;;7365315;19;20026;-62
2023/06/27 11:50:27;;;;;;;4.25;0.85;;;23.90;55.10;;;;;;7372219;19;20018;-61
2023/06/27 11:52:57;;;;;;;6.38;1.33;;;24.00;55.30;;;;;;7371047;19;20425;-63
2023/06/27 11:55:23;;;;;;;6.13;1.10;;;24.20;56.30;;;;;;7370704;19;20362;-62
2023/06/27 11:57:58;;;;;;;4.32;1.15;;;24.30;56.30;;;;;;7358917;19;20068;-62
2023/06/27 12:00:28;;;;;;;5.78;1.33;;;24.60;56.90;;;;;;7371115;19;20074;-63
2023/06/27 12:02:57;;;;;;;3.58;1.33;;;24.70;56.40;;;;;;7371702;19;20048;-61
2023/06/27 12:05:24;;;;;;;7.15;1.10;;;24.50;56.70;;;;;;7372263;19;20050;-62
2023/06/27 12:08:07;;;;;;;3.13;1.05;;;24.20;55.70;;;;;;7370190;19;20018;-62
2023/06/27 12:10:48;;;;;;;5.78;1.27;;;24.20;55.90;;;;;;7371465;19;20033;-61
2023/06/27 12:13:15;;;;;;;3.60;0.88;;;24.30;56.20;;;;;;7364529;19;20014;-64
2023/06/27 12:15:48;;;;;;;3.67;0.80;;;24.20;55.30;;;;;;7365947;19;20070;-61
2023/06/27 12:18:25;;;;;;;3.70;1.20;;;24.10;54.80;;;;;;7366769;19;20035;-63
2023/06/27 12:20:52;;;;;;;5.07;1.10;;;24.30;55.00;;;;;;7367833;19;20022;-61
2023/06/27 12:23:19;;;;;;;5.32;1.20;;;24.40;55.40;;;;;;7368154;19;20018;-61
2023/06/27 12:25:46;;;;;;;3.75;0.93;;;24.60;55.30;;;;;;7365858;19;20049;-62
2023/06/27 12:28:13;;;;;;;3.60;0.95;;;24.80;54.50;;;;;;7374006;19;20544;-61
2023/06/27 12:30:40;;;;;;;3.88;1.10;;;24.80;53.80;;;;;;7370260;19;20018;-61
2023/06/27 12:33:08;;;;;;;3.30;1.15;;;25.40;53.50;;;;;;7375654;19;20504;-61
2023/06/27 12:35:35;;;;;;;4.63;1.08;;;25.50;53.40;;;;;;7373666;19;20505;-61
2023/06/27 12:38:01;;;;;;;3.38;0.90;;;25.90;52.50;;;;;;7376001;19;20018;-62
2023/06/27 12:40:28;;;;;;;3.35;1.20;;;25.80;51.40;;;;;;7375395;19;20026;-62
2023/06/27 12:42:54;;;;;;;7.38;1.00;;;25.50;48.40;;;;;;7372030;19;20138;-62
2023/06/27 12:45:22;;;;;;;4.43;0.90;;;25.50;49.90;;;;;;7373510;19;21003;-62
2023/06/27 12:47:48;;;;;;;2.40;1.00;;;25.50;50.80;;;;;;7376042;19;20019;-65